createdAt,value
2022-12-12T00:00:52.731Z,3.47
2022-12-12T00:03:20.278Z,4.97
2022-12-12T00:05:47.421Z,5.25
2022-12-12T00:08:14.508Z,5.80
2022-12-12T00:10:41.811Z,5.60
2022-12-12T00:13:08.846Z,4.12
2022-12-12T00:15:35.871Z,4.10
2022-12-12T00:18:03.283Z,3.95
2022-12-12T00:20:30.255Z,5.32
2022-12-12T00:22:57.288Z,3.55
2022-12-12T00:25:24.571Z,5.00
2022-12-12T00:27:51.542Z,3.12
2022-12-12T00:30:18.580Z,3.95
2022-12-12T00:32:45.874Z,3.17
2022-12-12T00:35:13.163Z,4.07
2022-12-12T00:37:40.374Z,3.17
2022-12-12T00:40:08.342Z,2.58
2022-12-12T00:42:35.326Z,3.37
2022-12-12T00:45:02.357Z,3.42
2022-12-12T00:47:29.702Z,3.75
2022-12-12T00:49:56.666Z,3.80
2022-12-12T00:52:26.559Z,3.65
2022-12-12T00:54:53.841Z,4.45
2022-12-12T00:57:20.878Z,4.55
2022-12-12T00:59:47.859Z,3.53
2022-12-12T01:02:15.207Z,3.67
2022-12-12T01:04:42.218Z,4.57
2022-12-12T01:07:09.203Z,3.10
2022-12-12T01:09:36.711Z,5.18
2022-12-12T01:12:03.840Z,4.57
2022-12-12T01:14:30.839Z,3.67
2022-12-12T01:16:58.143Z,5.22
2022-12-12T01:19:25.139Z,5.37
2022-12-12T01:21:52.160Z,4.12
2022-12-12T01:24:19.435Z,4.32
2022-12-12T01:26:47.330Z,4.53
2022-12-12T01:29:14.554Z,5.97
2022-12-12T01:31:41.830Z,4.60
2022-12-12T01:34:08.854Z,4.60
2022-12-12T01:36:36.558Z,4.45
2022-12-12T01:39:04.227Z,4.85
2022-12-12T01:41:31.725Z,3.90
2022-12-12T01:44:02.251Z,4.50
2022-12-12T01:46:39.535Z,4.82
2022-12-12T01:49:18.358Z,3.85
2022-12-12T01:51:46.902Z,4.32
2022-12-12T01:54:19.244Z,4.15
2022-12-12T01:56:47.591Z,4.60
2022-12-12T01:59:16.550Z,3.72
2022-12-12T02:01:43.994Z,4.22
2022-12-12T02:04:11.761Z,5.80
2022-12-12T02:06:39.427Z,5.10
2022-12-12T02:09:09.742Z,3.40
2022-12-12T02:11:43.979Z,5.18
2022-12-12T02:14:11.680Z,7.15
2022-12-12T02:16:50.039Z,5.35
2022-12-12T02:19:23.144Z,4.10
2022-12-12T02:22:05.616Z,4.87
2022-12-12T02:25:06.564Z,5.10
2022-12-12T02:28:15.931Z,7.62
2022-12-12T02:31:13.569Z,4.50
2022-12-12T02:33:59.880Z,5.22
2022-12-12T02:36:48.684Z,4.80
2022-12-12T02:39:22.179Z,6.25
2022-12-12T02:41:55.261Z,4.75
2022-12-12T02:44:29.549Z,5.22
2022-12-12T02:47:12.464Z,5.72
2022-12-12T02:49:53.625Z,4.90
2022-12-12T02:52:21.006Z,5.93
2022-12-12T02:54:48.946Z,4.80
2022-12-12T02:57:18.842Z,4.12
2022-12-12T02:59:52.848Z,4.68
2022-12-12T03:02:44.748Z,5.25
2022-12-12T03:06:06.105Z,3.65
2022-12-12T03:08:43.344Z,4.32
2022-12-12T03:11:17.227Z,5.32
2022-12-12T03:16:23.307Z,3.58
2022-12-12T03:18:57.414Z,4.80
2022-12-12T03:22:15.008Z,4.70
2022-12-12T03:25:13.845Z,4.50
2022-12-12T03:28:09.857Z,3.78
2022-12-12T03:30:41.884Z,3.25
2022-12-12T03:33:35.137Z,3.33
2022-12-12T03:36:05.167Z,5.72
2022-12-12T03:38:35.544Z,2.55
2022-12-12T03:41:05.676Z,4.05
2022-12-12T03:43:37.939Z,4.03
2022-12-12T03:46:28.095Z,4.50
2022-12-12T03:49:07.507Z,4.28
2022-12-12T03:51:39.933Z,3.87
2022-12-12T03:54:21.004Z,3.87
2022-12-12T03:57:00.852Z,4.22
2022-12-12T03:59:34.661Z,5.15
2022-12-12T04:02:11.957Z,4.72
2022-12-12T04:04:56.737Z,5.20
2022-12-12T04:07:28.102Z,3.85
2022-12-12T04:10:13.898Z,4.43
2022-12-12T04:13:00.363Z,4.65
2022-12-12T04:15:51.810Z,6.47
2022-12-12T04:18:53.558Z,4.65
2022-12-12T04:21:59.374Z,3.75
2022-12-12T04:24:36.295Z,4.37
2022-12-12T04:27:15.690Z,4.95
2022-12-12T04:29:46.588Z,5.47
2022-12-12T04:32:27.305Z,3.75
2022-12-12T04:34:57.953Z,5.35
2022-12-12T04:37:46.794Z,5.43
2022-12-12T04:40:18.223Z,5.03
2022-12-12T04:42:50.139Z,5.50
2022-12-12T04:45:21.063Z,4.32
2022-12-12T04:47:50.535Z,5.25
2022-12-12T04:50:19.682Z,5.05
2022-12-12T04:52:48.556Z,4.53
2022-12-12T04:55:22.881Z,4.75
2022-12-12T04:57:54.753Z,4.93
2022-12-12T05:00:23.532Z,4.78
2022-12-12T05:03:01.183Z,4.18
2022-12-12T05:05:29.836Z,5.62
2022-12-12T05:08:08.831Z,4.87
2022-12-12T05:10:42.850Z,5.18
2022-12-12T05:13:21.632Z,5.15
2022-12-12T05:15:51.279Z,4.82
2022-12-12T05:18:18.515Z,6.65
2022-12-12T05:20:45.903Z,7.12
2022-12-12T05:23:13.209Z,6.18
2022-12-12T05:25:40.215Z,6.85
2022-12-12T05:28:07.223Z,6.15
2022-12-12T05:30:34.731Z,6.10
2022-12-12T05:33:01.841Z,5.12
2022-12-12T05:35:28.986Z,6.30
2022-12-12T05:37:56.579Z,6.55
2022-12-12T05:40:23.820Z,5.87
2022-12-12T05:42:52.004Z,5.15
2022-12-12T05:45:19.572Z,6.15
2022-12-12T05:47:46.605Z,5.18
2022-12-12T05:50:13.609Z,5.70
2022-12-12T05:52:42.916Z,4.95
2022-12-12T05:55:10.033Z,5.15
2022-12-12T05:57:37.239Z,5.75
2022-12-12T06:00:05.371Z,6.03
2022-12-12T06:02:32.383Z,5.00
2022-12-12T06:04:59.705Z,5.05
2022-12-12T06:07:26.828Z,5.97
2022-12-12T06:09:55.764Z,5.82
2022-12-12T06:12:23.366Z,7.05
2022-12-12T06:14:50.359Z,5.55
2022-12-12T06:17:17.343Z,6.20
2022-12-12T06:19:44.606Z,5.40
2022-12-12T06:22:11.622Z,6.00
2022-12-12T06:24:38.665Z,5.50
2022-12-12T06:27:05.934Z,6.57
2022-12-12T06:29:33.091Z,6.62
2022-12-12T06:32:00.076Z,6.30
2022-12-12T06:34:27.377Z,6.00
2022-12-12T06:36:54.400Z,6.05
2022-12-12T06:39:21.404Z,6.85
2022-12-12T06:41:48.710Z,5.97
2022-12-12T06:44:15.932Z,6.12
2022-12-12T06:46:43.091Z,4.62
2022-12-12T06:49:10.525Z,8.05
2022-12-12T06:51:43.876Z,6.20
2022-12-12T06:54:12.963Z,7.03
2022-12-12T06:56:46.303Z,5.03
2022-12-12T06:59:16.397Z,5.72
2022-12-12T07:01:43.980Z,6.18
2022-12-12T07:04:14.844Z,6.15
2022-12-12T07:06:42.334Z,5.72
2022-12-12T07:09:09.807Z,7.18
2022-12-12T07:11:36.786Z,5.65
2022-12-12T07:14:05.714Z,6.50
2022-12-12T07:16:32.752Z,6.60
2022-12-12T07:19:00.015Z,7.15
2022-12-12T07:21:27.327Z,5.90
2022-12-12T07:23:56.969Z,6.20
2022-12-12T07:26:24.291Z,6.28
2022-12-12T07:28:51.746Z,7.03
2022-12-12T07:31:21.723Z,5.43
2022-12-12T07:33:48.829Z,6.85
2022-12-12T07:36:16.575Z,6.30
2022-12-12T07:38:44.130Z,6.18
2022-12-12T07:41:14.799Z,6.55
2022-12-12T07:43:44.858Z,5.68
2022-12-12T07:46:18.306Z,6.05
2022-12-12T07:48:46.188Z,6.22
2022-12-12T07:51:13.448Z,6.22
2022-12-12T07:53:40.709Z,6.78
2022-12-12T07:56:09.986Z,5.55
2022-12-12T07:58:37.321Z,6.68
2022-12-12T08:01:16.250Z,7.50
2022-12-12T08:03:45.036Z,6.95
2022-12-12T08:06:12.726Z,7.00
2022-12-12T08:08:39.733Z,6.78
2022-12-12T08:11:11.944Z,5.18
2022-12-12T08:13:40.127Z,6.43
2022-12-12T08:16:12.333Z,7.32
2022-12-12T08:18:39.387Z,5.30
2022-12-12T08:21:11.351Z,6.00
2022-12-12T08:23:39.716Z,5.55
2022-12-12T08:26:11.753Z,4.85
2022-12-12T08:28:41.433Z,4.57
2022-12-12T08:31:08.995Z,4.40
2022-12-12T08:33:36.063Z,5.43
2022-12-12T08:36:21.143Z,5.47
2022-12-12T08:38:48.262Z,4.62
2022-12-12T08:41:16.116Z,5.78
2022-12-12T08:43:43.973Z,6.18
2022-12-12T08:46:17.369Z,4.60
2022-12-12T08:48:46.658Z,3.80
2022-12-12T08:51:14.867Z,4.25
2022-12-12T08:53:44.780Z,5.12
2022-12-12T08:56:12.326Z,5.32
2022-12-12T08:58:39.326Z,4.53
2022-12-12T09:01:14.792Z,3.83
2022-12-12T09:03:42.120Z,5.68
2022-12-12T09:06:10.295Z,4.10
2022-12-12T09:08:37.973Z,3.92
2022-12-12T09:11:05.530Z,6.55
2022-12-12T09:13:33.002Z,5.30
2022-12-12T09:16:00.228Z,5.75
2022-12-12T09:18:27.608Z,5.55
2022-12-12T09:20:56.742Z,5.37
2022-12-12T09:23:25.031Z,4.47
2022-12-12T09:25:53.278Z,3.40
2022-12-12T09:28:21.726Z,3.92
2022-12-12T09:30:49.542Z,4.65
2022-12-12T09:33:17.383Z,5.82
2022-12-12T09:35:44.600Z,4.57
2022-12-12T09:38:14.556Z,4.35
2022-12-12T09:40:51.294Z,5.32
2022-12-12T09:43:26.131Z,3.85
2022-12-12T09:45:57.004Z,5.50
2022-12-12T09:48:44.791Z,3.67
2022-12-12T09:51:12.826Z,4.57
2022-12-12T09:53:42.936Z,6.45
2022-12-12T09:56:11.089Z,3.87
2022-12-12T09:58:51.389Z,5.32
2022-12-12T10:01:25.264Z,5.22
2022-12-12T10:04:22.795Z,4.00
2022-12-12T10:06:55.638Z,5.12
2022-12-12T10:09:37.553Z,4.90
2022-12-12T10:12:08.366Z,5.20
2022-12-12T10:14:45.243Z,4.87
2022-12-12T10:17:16.688Z,3.85
2022-12-12T10:20:14.157Z,4.75
2022-12-12T10:22:48.489Z,4.85
2022-12-12T10:25:47.720Z,5.05
2022-12-12T10:28:17.524Z,4.60
2022-12-12T10:30:57.021Z,4.03
2022-12-12T10:33:56.362Z,3.60
2022-12-12T10:36:32.052Z,3.97
2022-12-12T10:39:40.527Z,3.37
2022-12-12T10:42:20.052Z,4.25
2022-12-12T10:44:47.471Z,4.35
2022-12-12T10:47:18.008Z,3.80
2022-12-12T10:49:45.092Z,3.40
2022-12-12T10:52:22.482Z,3.85
2022-12-12T10:54:57.171Z,3.67
2022-12-12T10:57:29.122Z,2.87
2022-12-12T10:59:58.459Z,3.47
2022-12-12T11:02:37.837Z,2.53
2022-12-12T11:05:05.324Z,2.45
2022-12-12T11:07:37.221Z,3.90
2022-12-12T11:10:14.594Z,3.10
2022-12-12T11:12:41.926Z,3.92
2022-12-12T11:15:17.106Z,3.20
2022-12-12T11:17:44.626Z,2.87
2022-12-12T11:20:18.026Z,2.90
2022-12-12T11:22:45.453Z,2.87
2022-12-12T11:25:44.569Z,3.08
2022-12-12T11:28:20.306Z,3.70
2022-12-12T11:30:50.878Z,3.40
2022-12-12T11:33:24.208Z,3.67
2022-12-12T11:35:55.999Z,3.80
2022-12-12T11:38:50.642Z,3.05
2022-12-12T11:41:17.861Z,3.22
2022-12-12T11:43:47.988Z,3.80
2022-12-12T11:46:14.998Z,3.70
2022-12-12T11:48:47.726Z,3.33
2022-12-12T11:51:39.834Z,3.17
2022-12-12T11:54:19.984Z,4.80
2022-12-12T11:57:04.685Z,3.95
2022-12-12T11:59:59.137Z,2.75
2022-12-12T12:05:15.193Z,3.47
2022-12-12T12:08:03.599Z,3.58
2022-12-12T12:10:43.035Z,3.65
2022-12-12T12:13:26.516Z,3.87
2022-12-12T12:16:18.166Z,3.62
2022-12-12T12:18:57.514Z,4.20
2022-12-12T12:21:34.690Z,3.83
2022-12-12T12:24:02.738Z,2.70
2022-12-12T12:26:53.116Z,4.45
2022-12-12T12:29:36.041Z,3.33
2022-12-12T12:32:26.480Z,3.03
2022-12-12T12:35:08.208Z,2.97
2022-12-12T12:37:44.501Z,3.25
2022-12-12T12:40:36.374Z,3.62
2022-12-12T12:43:48.640Z,2.78
2022-12-12T12:46:29.527Z,4.35
2022-12-12T12:49:01.399Z,3.72
2022-12-12T12:51:37.020Z,3.40
2022-12-12T12:54:04.250Z,3.40
2022-12-12T12:56:33.686Z,2.72
2022-12-12T12:59:06.426Z,3.60
2022-12-12T13:01:43.530Z,2.85
2022-12-12T13:04:10.579Z,4.07
2022-12-12T13:06:37.814Z,2.87
2022-12-12T13:09:32.446Z,3.22
2022-12-12T13:14:46.595Z,3.22
2022-12-12T13:17:25.848Z,3.62
2022-12-12T13:19:54.083Z,2.85
2022-12-12T13:22:48.393Z,3.25
2022-12-12T13:25:30.027Z,2.73
2022-12-12T13:27:59.025Z,3.78
2022-12-12T13:30:44.800Z,3.42
2022-12-12T13:33:28.219Z,3.50
2022-12-12T13:36:05.223Z,4.62
2022-12-12T13:38:33.522Z,3.75
2022-12-12T13:41:03.077Z,4.25
2022-12-12T13:43:33.151Z,3.97
2022-12-12T13:46:20.014Z,4.15
2022-12-12T13:49:11.273Z,3.78
2022-12-12T13:51:42.320Z,4.20
2022-12-12T13:54:14.528Z,3.97
2022-12-12T13:56:45.656Z,3.92
2022-12-12T13:59:27.437Z,4.37
2022-12-12T14:02:23.729Z,4.78
2022-12-12T14:05:10.591Z,4.37
2022-12-12T14:07:48.030Z,3.40
2022-12-12T14:10:52.022Z,5.62
2022-12-12T14:13:21.942Z,4.47
2022-12-12T14:15:58.051Z,3.97
2022-12-12T14:18:30.251Z,5.37
2022-12-12T14:21:02.490Z,4.15
2022-12-12T14:23:33.315Z,5.93
2022-12-12T14:26:01.473Z,4.60
2022-12-12T14:28:32.213Z,5.28
2022-12-12T14:31:06.702Z,4.47
2022-12-12T14:33:52.693Z,6.05
2022-12-12T14:36:36.266Z,4.93
2022-12-12T14:39:14.487Z,7.07
2022-12-12T14:41:44.512Z,4.68
2022-12-12T14:44:35.470Z,4.62
2022-12-12T14:47:08.910Z,4.53
2022-12-12T14:49:36.421Z,4.60
2022-12-12T14:52:03.733Z,4.12
2022-12-12T14:54:31.077Z,5.07
2022-12-12T14:56:59.247Z,5.72
2022-12-12T14:59:31.897Z,4.47
2022-12-12T15:02:16.997Z,5.32
2022-12-12T15:04:46.179Z,4.35
2022-12-12T15:07:28.530Z,4.57
2022-12-12T15:09:55.704Z,4.32
2022-12-12T15:12:32.911Z,4.62
2022-12-12T15:15:00.302Z,4.75
2022-12-12T15:17:30.143Z,4.70
2022-12-12T15:20:02.866Z,5.05
2022-12-12T15:22:33.526Z,4.53
2022-12-12T15:25:20.603Z,5.15
2022-12-12T15:27:55.579Z,5.55
2022-12-12T15:30:37.150Z,5.35
2022-12-12T15:33:14.852Z,6.00
2022-12-12T15:35:55.206Z,5.68
2022-12-12T15:38:27.377Z,6.45
2022-12-12T15:40:57.802Z,6.95
2022-12-12T15:43:26.659Z,6.93
2022-12-12T15:45:55.397Z,6.18
2022-12-12T15:48:23.265Z,6.60
2022-12-12T15:50:59.849Z,6.90
2022-12-12T15:53:29.689Z,6.28
2022-12-12T15:56:01.005Z,7.37
2022-12-12T15:58:35.080Z,6.35
2022-12-12T16:01:20.766Z,6.37
2022-12-12T16:04:12.593Z,5.95
2022-12-12T16:06:44.513Z,5.05
2022-12-12T16:09:11.703Z,5.95
2022-12-12T16:11:49.367Z,5.12
2022-12-12T16:14:35.327Z,5.95
2022-12-12T16:17:06.064Z,6.07
2022-12-12T16:20:01.248Z,5.05
2022-12-12T16:25:21.404Z,4.55
2022-12-12T16:27:52.848Z,5.22
2022-12-12T16:30:20.333Z,5.32
2022-12-12T16:32:47.321Z,4.53
2022-12-12T16:35:19.130Z,5.03
2022-12-12T16:37:46.470Z,5.25
2022-12-12T16:40:16.900Z,4.60
2022-12-12T16:42:45.789Z,4.85
2022-12-12T16:45:13.071Z,4.62
2022-12-12T16:47:40.225Z,5.00
2022-12-12T16:50:07.495Z,3.67
2022-12-12T16:52:34.797Z,5.55
2022-12-12T16:55:01.969Z,4.72
2022-12-12T16:57:28.973Z,4.00
2022-12-12T16:59:56.312Z,3.65
2022-12-12T17:02:24.150Z,4.18
2022-12-12T17:04:51.918Z,4.25
2022-12-12T17:07:19.350Z,4.03
2022-12-12T17:09:46.702Z,4.70
2022-12-12T17:12:15.332Z,5.18
2022-12-12T17:14:42.723Z,4.45
2022-12-12T17:17:10.088Z,5.03
2022-12-12T17:19:37.378Z,3.33
2022-12-12T17:22:04.898Z,4.45
2022-12-12T17:24:32.927Z,5.10
2022-12-12T17:26:59.938Z,4.68
2022-12-12T17:29:27.207Z,4.47
2022-12-12T17:31:54.306Z,4.35
2022-12-12T17:34:21.390Z,5.53
2022-12-12T17:36:48.693Z,5.55
2022-12-12T17:39:15.681Z,4.45
2022-12-12T17:41:42.691Z,5.85
2022-12-12T17:44:09.996Z,4.05
2022-12-12T17:46:37.317Z,4.90
2022-12-12T17:49:04.326Z,5.45
2022-12-12T17:51:31.711Z,4.90
2022-12-12T17:54:00.220Z,4.25
2022-12-12T17:56:27.776Z,3.83
2022-12-12T17:58:56.818Z,5.47
2022-12-12T18:01:28.710Z,5.07
2022-12-12T18:03:56.780Z,4.93
2022-12-12T18:06:24.825Z,5.85
2022-12-12T18:08:52.690Z,5.22
2022-12-12T18:11:26.945Z,4.57
2022-12-12T18:13:57.444Z,4.62
2022-12-12T18:16:27.053Z,5.20
2022-12-12T18:18:56.305Z,4.75
2022-12-12T18:24:13.432Z,4.35
2022-12-12T18:26:40.616Z,6.37
2022-12-12T18:29:08.397Z,5.40
2022-12-12T18:31:35.950Z,6.30
2022-12-12T18:34:03.540Z,6.87
2022-12-12T18:36:31.621Z,5.35
2022-12-12T18:39:01.031Z,5.97
2022-12-12T18:41:28.575Z,5.32
2022-12-12T18:43:55.581Z,5.53
2022-12-12T18:46:24.764Z,5.93
2022-12-12T18:48:52.010Z,5.70
2022-12-12T18:51:23.171Z,5.50
2022-12-12T18:53:51.865Z,5.70
2022-12-12T18:56:25.428Z,5.30
2022-12-12T18:58:53.710Z,7.30
2022-12-12T19:01:23.148Z,4.15
2022-12-12T19:03:52.126Z,5.75
2022-12-12T19:06:33.539Z,4.87
2022-12-12T19:09:08.487Z,6.10
2022-12-12T19:11:36.073Z,6.95
2022-12-12T19:14:03.405Z,7.10
2022-12-12T19:16:30.723Z,6.97
2022-12-12T19:19:00.227Z,6.97
2022-12-12T19:21:30.224Z,6.57
2022-12-12T19:23:59.158Z,6.80
2022-12-12T19:26:28.242Z,6.37
2022-12-12T19:29:00.514Z,5.80
2022-12-12T19:31:27.897Z,7.82
2022-12-12T19:33:56.891Z,6.70
2022-12-12T19:36:26.748Z,6.95
2022-12-12T19:38:57.014Z,6.78
2022-12-12T19:41:24.094Z,7.53
2022-12-12T19:43:52.060Z,6.72
2022-12-12T19:46:21.640Z,7.70
2022-12-12T19:48:49.139Z,7.50
2022-12-12T19:51:18.846Z,7.30
2022-12-12T19:53:49.456Z,5.90
2022-12-12T19:56:22.058Z,6.95
2022-12-12T19:58:50.403Z,6.45
2022-12-12T20:01:20.386Z,7.45
2022-12-12T20:03:50.924Z,8.50
2022-12-12T20:06:18.714Z,7.12
2022-12-12T20:08:46.236Z,7.15
2022-12-12T20:11:18.840Z,8.45
2022-12-12T20:13:50.175Z,6.95
2022-12-12T20:16:18.774Z,7.25
2022-12-12T20:18:47.438Z,6.75
2022-12-12T20:21:43.360Z,8.68
2022-12-12T20:24:07.870Z,7.50
2022-12-12T20:26:37.725Z,8.48
2022-12-12T20:29:05.057Z,6.82
2022-12-12T20:31:38.142Z,8.93
2022-12-12T20:34:05.536Z,8.10
2022-12-12T20:36:34.416Z,7.00
2022-12-12T20:39:06.305Z,8.13
2022-12-12T20:41:38.662Z,7.10
2022-12-12T20:44:07.220Z,8.38
2022-12-12T20:46:36.977Z,8.88
2022-12-12T20:49:06.883Z,8.77
2022-12-12T20:54:22.489Z,9.02
2022-12-12T20:56:50.174Z,8.82
2022-12-12T20:59:20.148Z,7.60
2022-12-12T21:01:47.768Z,8.82
2022-12-12T21:04:17.075Z,6.70
2022-12-12T21:06:48.410Z,6.35
2022-12-12T21:09:22.832Z,8.93
2022-12-12T21:11:55.629Z,8.38
2022-12-12T21:14:24.195Z,9.45
2022-12-12T21:16:51.702Z,7.05
2022-12-12T21:19:19.056Z,8.27
2022-12-12T21:21:46.600Z,7.35
2022-12-12T21:24:16.731Z,8.73
2022-12-12T21:26:44.253Z,7.50
2022-12-12T21:29:11.933Z,7.60
2022-12-12T21:31:48.202Z,7.45
2022-12-12T21:34:17.973Z,7.22
2022-12-12T21:36:45.092Z,7.80
2022-12-12T21:39:12.706Z,8.93
2022-12-12T21:41:42.063Z,8.18
2022-12-12T21:44:09.423Z,10.85
2022-12-12T21:46:36.529Z,8.68
2022-12-12T21:49:22.496Z,9.10
2022-12-12T21:51:53.897Z,6.93
2022-12-12T21:54:21.571Z,8.10
2022-12-12T21:56:48.972Z,7.55
2022-12-12T21:59:18.852Z,8.38
2022-12-12T22:01:46.519Z,8.38
2022-12-12T22:04:19.792Z,6.73
2022-12-12T22:06:49.893Z,8.18
2022-12-12T22:09:20.138Z,8.07
2022-12-12T22:11:49.894Z,7.00
2022-12-12T22:14:19.611Z,8.23
2022-12-12T22:16:46.783Z,6.62
2022-12-12T22:19:15.137Z,6.82
2022-12-12T22:21:47.294Z,7.70
2022-12-12T22:24:15.420Z,7.87
2022-12-12T22:26:45.462Z,7.28
2022-12-12T22:29:15.128Z,6.22
2022-12-12T22:31:43.016Z,7.45
2022-12-12T22:34:24.272Z,6.50
2022-12-12T22:36:52.855Z,7.22
2022-12-12T22:39:24.059Z,7.53
2022-12-12T22:41:52.156Z,6.20
2022-12-12T22:44:22.119Z,6.97
2022-12-12T22:46:50.716Z,5.93
2022-12-12T22:49:21.106Z,6.35
2022-12-12T22:51:49.389Z,6.80
2022-12-12T22:54:16.519Z,7.95
2022-12-12T22:56:43.897Z,6.80
2022-12-12T22:59:13.339Z,6.72
2022-12-12T23:01:41.117Z,7.15
2022-12-12T23:04:12.646Z,6.87
2022-12-12T23:06:40.360Z,6.43
2022-12-12T23:09:14.345Z,6.50
2022-12-12T23:11:42.368Z,3.83
2022-12-12T23:14:14.309Z,6.40
2022-12-12T23:16:42.543Z,4.78
2022-12-12T23:19:10.362Z,6.28
2022-12-12T23:21:38.060Z,5.80
2022-12-12T23:24:06.447Z,5.53
2022-12-12T23:26:35.753Z,4.45
2022-12-12T23:29:04.192Z,5.82
2022-12-12T23:31:33.492Z,5.70
2022-12-12T23:34:03.422Z,5.30
2022-12-12T23:36:30.554Z,7.55
2022-12-12T23:39:06.197Z,6.05
2022-12-12T23:41:34.855Z,6.05
2022-12-12T23:44:02.252Z,6.35
2022-12-12T23:46:29.684Z,6.97
2022-12-12T23:49:06.891Z,4.57
2022-12-12T23:51:39.547Z,6.87
2022-12-12T23:54:09.629Z,6.22
2022-12-12T23:56:37.484Z,6.68
2022-12-12T23:59:04.508Z,6.03
